Time;durP1;ratioP1;P1;durP2;ratioP2;P2;SDS_P1;SDS_P2;PMS_P1;PMS_P2;Temp;Humidity;BMP_temperature;BMP_pressure;BME280_temperature;BME280_humidity;BME280_pressure;Samples;Min_cycle;Max_cycle;Signal;HPM_P1;HPM_P2
2022/12/04 00:01:02;;;;;;;;;;;;;;;22.25;41.05;101405.00;7265088;19;155846;-56
2022/12/04 00:03:29;;;;;;;;;;;;;;;22.26;41.16;101409.47;7260202;19;154704;-56
2022/12/04 00:05:59;;;;;;;;;;;;;;;22.27;41.28;101401.88;7255411;19;155776;-57
2022/12/04 00:08:26;;;;;;;;;;;;;;;22.27;41.31;101399.88;7257740;19;152429;-55
2022/12/04 00:10:53;;;;;;;;;;;;;;;22.27;41.26;101397.06;7256519;19;155011;-55
2022/12/04 00:13:20;;;;;;;;;;;;;;;22.28;41.07;101397.91;7250739;19;154404;-56
2022/12/04 00:15:47;;;;;;;;;;;;;;;22.28;40.90;101395.09;7253939;19;152615;-55
2022/12/04 00:18:14;;;;;;;;;;;;;;;22.27;41.30;101394.25;7256085;19;153756;-56
2022/12/04 00:20:41;;;;;;;;;;;;;;;22.25;40.90;101401.34;7256792;19;154011;-57
2022/12/04 00:23:07;;;;;;;;;;;;;;;22.24;41.14;101396.88;7263943;19;153443;-56
2022/12/04 00:25:34;;;;;;;;;;;;;;;22.21;41.11;101400.31;7255475;19;153593;-56
2022/12/04 00:28:06;;;;;;;;;;;;;;;22.18;41.12;101396.13;7255165;19;152684;-56
2022/12/04 00:30:33;;;;;;;;;;;;;;;22.13;41.02;101396.19;7258552;19;153226;-57
2022/12/04 00:33:00;;;;;;;;;;;;;;;22.10;41.58;101394.03;7253476;19;154703;-56
2022/12/04 00:35:27;;;;;;;;;;;;;;;22.04;41.72;101387.63;7256360;19;153751;-56
2022/12/04 00:37:54;;;;;;;;;;;;;;;22.03;41.18;101387.97;7255764;19;154827;-57
2022/12/04 00:40:21;;;;;;;;;;;;;;;21.98;41.36;101386.06;7250660;19;154093;-57
2022/12/04 00:42:48;;;;;;;;;;;;;;;21.94;41.57;101387.81;7249894;19;153508;-55
2022/12/04 00:45:15;;;;;;;;;;;;;;;21.91;41.48;101376.31;7258333;19;154089;-55
2022/12/04 00:47:41;;;;;;;;;;;;;;;21.86;41.91;101368.78;7250288;19;154556;-55
2022/12/04 00:50:09;;;;;;;;;;;;;;;21.85;41.89;101371.94;7249968;19;152528;-55
2022/12/04 00:52:35;;;;;;;;;;;;;;;21.83;42.11;101363.78;7248991;19;154206;-56
2022/12/04 00:55:03;;;;;;;;;;;;;;;21.80;42.14;101358.78;7249849;19;154442;-55
2022/12/04 00:57:30;;;;;;;;;;;;;;;21.81;41.85;101365.22;7249341;19;153535;-55
2022/12/04 00:59:56;;;;;;;;;;;;;;;21.78;42.28;101368.66;7247552;19;153862;-56
2022/12/04 01:02:23;;;;;;;;;;;;;;;21.77;41.95;101369.78;7250706;19;152442;-55
2022/12/04 01:04:50;;;;;;;;;;;;;;;21.74;42.33;101368.44;7251736;19;154065;-55
2022/12/04 01:07:17;;;;;;;;;;;;;;;21.72;42.19;101362.28;7259059;19;153853;-55
2022/12/04 01:09:44;;;;;;;;;;;;;;;21.69;42.31;101374.97;7253208;19;155559;-55
2022/12/04 01:12:11;;;;;;;;;;;;;;;21.71;42.27;101366.25;7247064;19;155239;-55
2022/12/04 01:14:45;;;;;;;;;;;;;;;21.65;42.09;101362.69;7244660;19;153558;-55
2022/12/04 01:17:13;;;;;;;;;;;;;;;21.63;42.14;101364.94;7250023;19;153779;-55
2022/12/04 01:19:39;;;;;;;;;;;;;;;21.65;42.54;101368.31;7247786;19;153584;-55
2022/12/04 01:22:07;;;;;;;;;;;;;;;21.62;42.17;101365.28;7246447;19;154220;-55
2022/12/04 01:24:34;;;;;;;;;;;;;;;21.60;42.22;101362.75;7251191;19;155081;-55
2022/12/04 01:27:01;;;;;;;;;;;;;;;21.55;42.61;101360.03;7248129;19;155122;-55
2022/12/04 01:29:27;;;;;;;;;;;;;;;21.53;42.59;101362.28;7256993;19;153533;-56
2022/12/04 01:31:54;;;;;;;;;;;;;;;21.51;42.81;101361.78;7247724;19;153935;-55
2022/12/04 01:34:24;;;;;;;;;;;;;;;21.50;42.55;101360.09;7247728;19;154893;-56
2022/12/04 01:36:51;;;;;;;;;;;;;;;21.49;42.26;101357.59;7252239;19;154364;-56
2022/12/04 01:39:18;;;;;;;;;;;;;;;21.45;42.72;101357.34;7253676;19;156032;-56
2022/12/04 01:41:45;;;;;;;;;;;;;;;21.41;42.66;101350.69;7251448;19;152959;-56
2022/12/04 01:44:12;;;;;;;;;;;;;;;21.41;42.76;101345.06;7253311;19;155652;-55
2022/12/04 01:46:39;;;;;;;;;;;;;;;21.37;42.79;101351.59;7253731;19;154979;-55
2022/12/04 01:49:09;;;;;;;;;;;;;;;21.32;42.43;101349.69;7259020;19;152355;-56
2022/12/04 01:51:38;;;;;;;;;;;;;;;21.31;42.50;101342.41;7253314;19;154755;-55
2022/12/04 01:54:08;;;;;;;;;;;;;;;21.30;42.25;101350.00;7255630;19;154499;-56
2022/12/04 01:56:37;;;;;;;;;;;;;;;21.27;42.62;101349.78;7254992;19;153583;-56
2022/12/04 01:59:06;;;;;;;;;;;;;;;21.23;42.70;101354.31;7253335;19;153710;-56
2022/12/04 02:01:37;;;;;;;;;;;;;;;21.22;42.72;101349.84;7254253;19;154034;-56
2022/12/04 02:04:04;;;;;;;;;;;;;;;21.17;42.52;101347.09;7255688;19;154312;-56
2022/12/04 02:06:31;;;;;;;;;;;;;;;21.17;42.45;101341.47;7250851;19;154133;-55
2022/12/04 02:08:58;;;;;;;;;;;;;;;21.10;42.85;101344.66;7254704;19;153224;-56
2022/12/04 02:11:31;;;;;;;;;;;;;;;21.10;42.66;101344.66;7257614;19;153899;-54
2022/12/04 02:14:01;;;;;;;;;;;;;;;21.06;42.99;101339.94;7250443;19;154156;-54
2022/12/04 02:16:35;;;;;;;;;;;;;;;21.03;42.63;101338.56;7249070;19;153505;-54
2022/12/04 02:19:05;;;;;;;;;;;;;;;20.99;42.78;101340.28;7250945;19;154407;-54
2022/12/04 02:21:36;;;;;;;;;;;;;;;21.00;43.03;101341.13;7253872;19;153959;-54
2022/12/04 02:24:04;;;;;;;;;;;;;;;20.98;42.94;101337.81;7253835;19;153087;-55
2022/12/04 02:26:31;;;;;;;;;;;;;;;20.94;42.67;101333.94;7249945;19;154322;-54
2022/12/04 02:28:58;;;;;;;;;;;;;;;20.94;43.29;101336.75;7252458;19;153970;-56
2022/12/04 02:31:30;;;;;;;;;;;;;;;20.91;43.21;101331.72;7252938;19;153268;-56
2022/12/04 02:33:59;;;;;;;;;;;;;;;20.88;43.14;101329.53;7258456;19;153953;-56
2022/12/04 02:36:28;;;;;;;;;;;;;;;20.85;42.73;101334.59;7248376;19;154425;-55
2022/12/04 02:38:58;;;;;;;;;;;;;;;20.83;42.80;101331.25;7247763;19;154201;-57
2022/12/04 02:41:28;;;;;;;;;;;;;;;20.80;42.81;101331.84;7249812;19;152937;-55
2022/12/04 02:43:57;;;;;;;;;;;;;;;20.79;43.21;101334.97;7246371;19;154823;-55
2022/12/04 02:46:27;;;;;;;;;;;;;;;20.77;43.29;101328.81;7247768;19;154071;-56
2022/12/04 02:48:56;;;;;;;;;;;;;;;20.74;42.92;101330.25;7246825;19;153288;-55
2022/12/04 02:51:26;;;;;;;;;;;;;;;20.73;42.92;101322.13;7246779;19;154009;-56
2022/12/04 02:53:56;;;;;;;;;;;;;;;20.69;43.40;101324.69;7247546;19;155569;-56
2022/12/04 02:56:25;;;;;;;;;;;;;;;20.68;43.14;101325.84;7255019;19;153956;-55
2022/12/04 02:58:55;;;;;;;;;;;;;;;20.66;43.58;101328.13;7246075;19;153974;-56
2022/12/04 03:01:26;;;;;;;;;;;;;;;20.64;43.31;101316.34;7247270;19;152427;-55
2022/12/04 03:03:58;;;;;;;;;;;;;;;20.62;43.15;101320.59;7245289;19;153774;-56
2022/12/04 03:06:27;;;;;;;;;;;;;;;20.59;43.62;101319.22;7247833;19;154773;-56
2022/12/04 03:08:58;;;;;;;;;;;;;;;20.60;43.62;101320.88;7247945;19;154549;-56
2022/12/04 03:11:28;;;;;;;;;;;;;;;20.57;43.53;101317.84;7244204;19;154189;-56
2022/12/04 03:13:58;;;;;;;;;;;;;;;20.55;43.46;101314.50;7245674;19;155631;-56
2022/12/04 03:16:28;;;;;;;;;;;;;;;20.53;43.36;101312.00;7243237;19;153649;-55
2022/12/04 03:18:58;;;;;;;;;;;;;;;20.52;43.54;101315.94;7248757;19;153556;-55
2022/12/04 03:21:30;;;;;;;;;;;;;;;20.50;43.55;101312.59;7246906;19;153743;-54
2022/12/04 03:24:01;;;;;;;;;;;;;;;20.47;43.46;101306.75;7250724;19;154645;-55
2022/12/04 03:26:34;;;;;;;;;;;;;;;20.44;43.71;101313.81;7252627;19;154362;-55
2022/12/04 03:29:08;;;;;;;;;;;;;;;20.45;43.52;101309.84;7254030;19;153822;-55
2022/12/04 03:31:38;;;;;;;;;;;;;;;20.41;44.00;101308.78;7253983;19;155154;-55
2022/12/04 03:34:06;;;;;;;;;;;;;;;20.41;43.78;101314.38;7257023;19;156077;-55
2022/12/04 03:36:36;;;;;;;;;;;;;;;20.41;43.80;101309.59;7258195;19;154164;-56
2022/12/04 03:39:06;;;;;;;;;;;;;;;20.38;43.86;101303.75;7259949;19;154002;-55
2022/12/04 03:41:40;;;;;;;;;;;;;;;20.37;44.09;101297.31;7263585;19;156612;-55
2022/12/04 03:44:16;;;;;;;;;;;;;;;20.36;43.96;101315.28;7259065;19;153616;-55
2022/12/04 03:46:46;;;;;;;;;;;;;;;20.34;43.75;101297.91;7255044;19;154587;-56
2022/12/04 03:49:18;;;;;;;;;;;;;;;20.31;44.17;101304.09;7258326;19;154798;-56
2022/12/04 03:51:49;;;;;;;;;;;;;;;20.29;44.21;101311.13;7255721;19;155105;-55
2022/12/04 03:54:20;;;;;;;;;;;;;;;20.26;44.33;101306.94;7256619;19;154403;-55
2022/12/04 03:56:52;;;;;;;;;;;;;;;20.25;44.23;101310.91;7257679;19;154065;-55
2022/12/04 03:59:22;;;;;;;;;;;;;;;20.22;44.35;101311.47;7259156;19;154023;-55
2022/12/04 04:01:50;;;;;;;;;;;;;;;20.21;44.48;101315.44;7264175;19;154505;-55
2022/12/04 04:04:20;;;;;;;;;;;;;;;20.19;44.25;101309.28;7255934;19;153226;-55
2022/12/04 04:06:50;;;;;;;;;;;;;;;20.18;44.15;101317.97;7255136;19;152646;-54
2022/12/04 04:09:20;;;;;;;;;;;;;;;20.16;44.34;101309.03;7258235;19;153650;-55
2022/12/04 04:11:51;;;;;;;;;;;;;;;20.14;44.14;101314.94;7255749;19;154015;-55
2022/12/04 04:24:35;;;;;;;;;;;;;;;20.05;44.50;101310.25;7265506;19;153229;-55
2022/12/04 04:27:02;;;;;;;;;;;;;;;20.03;44.93;101313.38;7252185;19;153747;-55
2022/12/04 04:29:29;;;;;;;;;;;;;;;20.02;44.62;101308.06;7254330;19;153875;-55
2022/12/04 04:31:59;;;;;;;;;;;;;;;20.00;44.54;101311.16;7254946;19;152147;-55
2022/12/04 04:34:29;;;;;;;;;;;;;;;19.98;44.89;101308.66;7248158;19;154240;-55
2022/12/04 04:36:59;;;;;;;;;;;;;;;19.96;44.55;101308.09;7254339;19;153896;-55
2022/12/04 04:39:27;;;;;;;;;;;;;;;19.97;44.95;101306.97;7253195;19;153261;-55
2022/12/04 04:41:57;;;;;;;;;;;;;;;19.95;45.03;101308.41;7250117;19;154114;-55
2022/12/04 04:44:27;;;;;;;;;;;;;;;19.92;44.82;101298.63;7252284;19;152388;-54
2022/12/04 04:46:57;;;;;;;;;;;;;;;19.92;44.93;101306.19;7258858;19;154229;-55
2022/12/04 04:49:27;;;;;;;;;;;;;;;19.88;45.08;101305.94;7251060;19;154621;-55
2022/12/04 04:51:54;;;;;;;;;;;;;;;19.88;45.14;101302.31;7247807;19;155554;-55
2022/12/04 04:54:21;;;;;;;;;;;;;;;19.86;45.13;101299.78;7251075;19;155212;-55
2022/12/04 04:56:48;;;;;;;;;;;;;;;19.84;44.86;101304.88;7249587;19;153559;-55
2022/12/04 04:59:15;;;;;;;;;;;;;;;19.81;45.34;101302.63;7251542;19;154124;-55
2022/12/04 05:01:43;;;;;;;;;;;;;;;19.82;44.95;101311.88;7251182;19;152375;-55
2022/12/04 05:04:10;;;;;;;;;;;;;;;19.81;45.08;101305.44;7249437;19;152674;-55
2022/12/04 05:06:37;;;;;;;;;;;;;;;19.78;45.44;101306.03;7251235;19;153773;-55
2022/12/04 05:09:04;;;;;;;;;;;;;;;19.78;45.13;101310.81;7258107;19;154011;-55
2022/12/04 05:11:31;;;;;;;;;;;;;;;19.76;45.08;101305.50;7248930;19;154028;-55
2022/12/04 05:13:58;;;;;;;;;;;;;;;19.75;45.49;101314.22;7249764;19;154293;-55
2022/12/04 05:16:24;;;;;;;;;;;;;;;19.74;45.75;101316.19;7250829;19;154060;-55
2022/12/04 05:21:21;;;;;;;;;;;;;;;19.71;45.79;101311.16;7247565;19;155065;-55
2022/12/04 05:23:49;;;;;;;;;;;;;;;19.70;45.94;101319.88;7252640;19;153862;-55
2022/12/04 05:26:16;;;;;;;;;;;;;;;19.69;45.62;101315.38;7253649;19;154225;-55
2022/12/04 05:28:43;;;;;;;;;;;;;;;19.67;45.83;101312.84;7250413;19;154314;-55
2022/12/04 05:31:10;;;;;;;;;;;;;;;19.66;45.76;101310.38;7263658;19;154004;-55
2022/12/04 05:33:37;;;;;;;;;;;;;;;19.64;45.86;101307.00;7249912;19;153338;-55
2022/12/04 05:36:05;;;;;;;;;;;;;;;19.64;46.02;101313.47;7254036;19;153862;-55
2022/12/04 05:38:32;;;;;;;;;;;;;;;19.61;45.77;101311.25;7250541;19;153702;-55
2022/12/04 05:41:00;;;;;;;;;;;;;;;19.60;45.84;101308.72;7251580;19;154409;-55
2022/12/04 05:43:27;;;;;;;;;;;;;;;19.61;45.82;101310.41;7252306;19;153901;-54
2022/12/04 05:45:54;;;;;;;;;;;;;;;19.60;46.19;101315.19;7251949;19;154137;-55
2022/12/04 05:48:21;;;;;;;;;;;;;;;19.59;46.04;101323.88;7255268;19;153907;-54
2022/12/04 05:50:48;;;;;;;;;;;;;;;19.55;46.06;101312.41;7254458;19;154162;-54
2022/12/04 05:53:15;;;;;;;;;;;;;;;19.51;45.97;101311.34;7261594;19;153552;-55
2022/12/04 05:55:41;;;;;;;;;;;;;;;19.52;46.17;101311.06;7254091;19;154640;-54
2022/12/04 05:58:08;;;;;;;;;;;;;;;19.50;45.95;101310.50;7252492;19;153104;-55
2022/12/04 06:00:35;;;;;;;;;;;;;;;19.53;46.46;101317.50;7251202;19;153879;-55
2022/12/04 06:03:02;;;;;;;;;;;;;;;19.51;46.45;101317.78;7253901;19;154076;-55
2022/12/04 06:05:31;;;;;;;;;;;;;;;19.49;46.09;101313.56;7252823;19;154453;-55
2022/12/04 06:07:58;;;;;;;;;;;;;;;19.46;46.36;101319.78;7252960;19;154201;-55
2022/12/04 06:10:25;;;;;;;;;;;;;;;19.46;46.16;101320.63;7250819;19;154137;-54
2022/12/04 06:12:56;;;;;;;;;;;;;;;19.44;46.17;101322.84;7259356;19;154383;-55
2022/12/04 06:15:23;;;;;;;;;;;;;;;19.43;46.14;101324.00;7252300;19;152681;-55
2022/12/04 06:17:50;;;;;;;;;;;;;;;19.41;46.17;101317.81;7252598;19;155090;-55
2022/12/04 06:20:17;;;;;;;;;;;;;;;19.39;46.51;101316.44;7244323;19;156645;-55
2022/12/04 06:22:44;;;;;;;;;;;;;;;19.41;46.19;101325.38;7252828;19;153163;-55
2022/12/04 06:25:11;;;;;;;;;;;;;;;19.38;46.41;101328.78;7253722;19;154153;-55
2022/12/04 06:27:38;;;;;;;;;;;;;;;19.38;46.32;101332.41;7251159;19;153719;-54
2022/12/04 06:30:06;;;;;;;;;;;;;;;19.36;46.58;101329.06;7250289;19;152786;-55
2022/12/04 06:32:32;;;;;;;;;;;;;;;19.37;46.13;101324.28;7250552;19;154723;-55
2022/12/04 06:35:00;;;;;;;;;;;;;;;19.35;46.20;101323.78;7255128;19;156494;-54
2022/12/04 06:37:27;;;;;;;;;;;;;;;19.34;46.47;101324.88;7248251;19;152806;-55
2022/12/04 06:39:54;;;;;;;;;;;;;;;19.32;46.43;101327.13;7248742;19;153305;-55
2022/12/04 06:42:21;;;;;;;;;;;;;;;19.30;46.62;101321.00;7245939;19;154527;-55
2022/12/04 06:44:48;;;;;;;;;;;;;;;19.29;46.46;101317.34;7249920;19;152809;-54
2022/12/04 06:47:15;;;;;;;;;;;;;;;19.28;46.70;101323.25;7248480;19;154145;-55
2022/12/04 06:49:42;;;;;;;;;;;;;;;19.30;46.59;101323.81;7249812;19;153779;-55
2022/12/04 06:52:09;;;;;;;;;;;;;;;19.32;46.71;101325.16;7246620;19;153952;-55
2022/12/04 06:54:35;;;;;;;;;;;;;;;19.36;46.79;101314.22;7246374;19;156434;-55
2022/12/04 06:57:02;;;;;;;;;;;;;;;19.45;46.86;101318.09;7252419;19;154051;-56
2022/12/04 06:59:29;;;;;;;;;;;;;;;19.50;46.63;101320.88;7253906;19;154535;-56
2022/12/04 07:01:56;;;;;;;;;;;;;;;19.59;46.97;101321.91;7255843;19;153430;-55
2022/12/04 07:04:23;;;;;;;;;;;;;;;19.64;47.12;101321.88;7254786;19;155218;-55
2022/12/04 07:06:50;;;;;;;;;;;;;;;19.68;46.90;101313.69;7253311;19;154262;-55
2022/12/04 07:09:18;;;;;;;;;;;;;;;19.71;47.21;101319.59;7255606;19;153768;-55
2022/12/04 07:11:46;;;;;;;;;;;;;;;19.77;47.15;101326.78;7249824;19;153009;-56
2022/12/04 07:14:14;;;;;;;;;;;;;;;19.80;46.87;101320.63;7253239;19;154502;-56
2022/12/04 07:16:41;;;;;;;;;;;;;;;19.83;47.30;101322.81;7253504;19;154591;-55
2022/12/04 07:19:09;;;;;;;;;;;;;;;19.87;47.14;101331.47;7261176;19;153528;-55
2022/12/04 07:21:37;;;;;;;;;;;;;;;19.91;47.58;101324.97;7247636;19;153744;-55
2022/12/04 07:24:06;;;;;;;;;;;;;;;19.95;47.21;101334.47;7255355;19;154026;-56
2022/12/04 07:26:32;;;;;;;;;;;;;;;19.99;47.28;101334.72;7256444;19;154440;-56
2022/12/04 07:28:59;;;;;;;;;;;;;;;20.04;47.42;101336.63;7256328;19;153453;-55
2022/12/04 07:31:27;;;;;;;;;;;;;;;20.09;47.63;101336.59;7256805;19;154301;-55
2022/12/04 07:33:55;;;;;;;;;;;;;;;20.14;47.57;101339.34;7254894;19;154889;-55
2022/12/04 07:36:22;;;;;;;;;;;;;;;20.19;47.62;101342.94;7255125;19;152300;-55
2022/12/04 07:38:49;;;;;;;;;;;;;;;20.23;47.56;101337.56;7259246;19;154785;-55
2022/12/04 07:41:17;;;;;;;;;;;;;;;20.29;47.71;101347.63;7265741;19;153398;-55
2022/12/04 07:43:44;;;;;;;;;;;;;;;20.31;47.32;101346.19;7255690;19;153616;-55
2022/12/04 07:46:12;;;;;;;;;;;;;;;20.36;47.43;101346.16;7256169;19;153569;-55
2022/12/04 07:48:39;;;;;;;;;;;;;;;20.41;47.05;101348.06;7256201;19;153623;-55
2022/12/04 07:51:08;;;;;;;;;;;;;;;20.46;47.01;101353.63;7258206;19;154441;-55
2022/12/04 07:53:36;;;;;;;;;;;;;;;20.51;47.15;101353.56;7255431;19;153461;-55
2022/12/04 07:56:03;;;;;;;;;;;;;;;20.54;46.99;101352.97;7254453;19;155007;-55
2022/12/04 07:58:30;;;;;;;;;;;;;;;20.60;46.90;101353.75;7255972;19;153296;-56
2022/12/04 08:01:00;;;;;;;;;;;;;;;20.65;47.09;101359.28;7255173;19;154049;-55
2022/12/04 08:03:27;;;;;;;;;;;;;;;20.69;47.20;101360.38;7265405;19;153477;-55
2022/12/04 08:05:54;;;;;;;;;;;;;;;20.74;47.00;101363.13;7255910;19;154277;-55
2022/12/04 08:08:20;;;;;;;;;;;;;;;20.79;47.10;101363.06;7257333;19;152464;-55
2022/12/04 08:10:47;;;;;;;;;;;;;;;20.83;46.76;101364.13;7255358;19;153076;-54
2022/12/04 08:13:14;;;;;;;;;;;;;;;20.88;47.13;101366.03;7255155;19;155789;-55
2022/12/04 08:15:41;;;;;;;;;;;;;;;20.94;46.56;101359.22;7254062;19;152784;-55
2022/12/04 08:18:08;;;;;;;;;;;;;;;20.97;46.62;101358.59;7253756;19;153985;-55
2022/12/04 08:20:35;;;;;;;;;;;;;;;21.02;46.45;101365.00;7253717;19;153826;-55
2022/12/04 08:23:02;;;;;;;;;;;;;;;21.05;46.33;101366.34;7261471;19;158390;-54
2022/12/04 08:25:28;;;;;;;;;;;;;;;21.08;45.93;101368.56;7256148;19;152971;-55
2022/12/04 08:27:55;;;;;;;;;;;;;;;21.11;45.56;101371.63;7254328;19;154909;-54
2022/12/04 08:30:22;;;;;;;;;;;;;;;21.14;45.45;101370.19;7254174;19;153174;-55
2022/12/04 08:32:49;;;;;;;;;;;;;;;21.17;45.57;101378.00;7251438;19;154094;-55
2022/12/04 08:35:16;;;;;;;;;;;;;;;21.20;45.19;101377.44;7247453;19;153820;-55
2022/12/04 08:37:43;;;;;;;;;;;;;;;21.22;44.87;101384.41;7251133;19;153607;-55
2022/12/04 08:40:10;;;;;;;;;;;;;;;21.26;45.15;101396.72;7251821;19;155099;-55
2022/12/04 08:42:37;;;;;;;;;;;;;;;21.27;45.34;101387.16;7251406;19;154358;-55
2022/12/04 08:45:04;;;;;;;;;;;;;;;21.32;45.26;101391.03;7258642;19;153240;-55
2022/12/04 08:47:31;;;;;;;;;;;;;;;21.33;44.94;101385.09;7253190;19;153895;-55
2022/12/04 08:49:58;;;;;;;;;;;;;;;21.35;45.09;101391.25;7249461;19;153588;-55
2022/12/04 08:52:25;;;;;;;;;;;;;;;21.38;44.67;101396.28;7251851;19;153902;-55
2022/12/04 08:54:52;;;;;;;;;;;;;;;21.39;44.12;101397.13;7250916;19;154821;-55
2022/12/04 08:57:19;;;;;;;;;;;;;;;21.41;44.40;101398.47;7250041;19;153697;-55
2022/12/04 08:59:45;;;;;;;;;;;;;;;21.42;44.69;101400.16;7250496;19;156183;-55
2022/12/04 09:02:12;;;;;;;;;;;;;;;21.44;44.23;101405.47;7251606;19;153593;-56
2022/12/04 09:04:44;;;;;;;;;;;;;;;21.44;44.29;101400.66;7250091;19;154402;-55
2022/12/04 09:07:11;;;;;;;;;;;;;;;21.44;43.96;101406.28;7258159;19;154464;-55
2022/12/04 09:09:38;;;;;;;;;;;;;;;21.45;44.09;101405.16;7254314;19;153317;-55
2022/12/04 09:12:12;;;;;;;;;;;;;;;21.46;43.83;101406.84;7246407;19;155544;-55
2022/12/04 09:14:38;;;;;;;;;;;;;;;21.47;43.60;101414.13;7249974;19;154142;-55
2022/12/04 09:17:05;;;;;;;;;;;;;;;21.48;43.60;101417.78;7250696;19;152794;-55
2022/12/04 09:19:34;;;;;;;;;;;;;;;21.47;43.78;101413.28;7250405;19;154311;-55
2022/12/04 09:22:00;;;;;;;;;;;;;;;21.44;43.57;101409.09;7247228;19;153671;-55
2022/12/04 09:24:28;;;;;;;;;;;;;;;21.41;43.64;101406.91;7252409;19;153151;-55
2022/12/04 09:26:55;;;;;;;;;;;;;;;21.41;43.89;101408.88;7249646;19;155003;-55
2022/12/04 09:29:22;;;;;;;;;;;;;;;21.39;43.95;101409.19;7261586;19;153274;-56
2022/12/04 09:31:49;;;;;;;;;;;;;;;21.33;44.15;101410.41;7253931;19;154436;-56
2022/12/04 09:34:16;;;;;;;;;;;;;;;21.29;44.08;101413.00;7253126;19;153274;-56
2022/12/04 09:36:43;;;;;;;;;;;;;;;21.24;44.49;101407.44;7254331;19;154532;-55
2022/12/04 09:39:09;;;;;;;;;;;;;;;21.20;44.09;101405.53;7253212;19;153201;-55
2022/12/04 09:41:36;;;;;;;;;;;;;;;21.18;44.68;101408.63;7254540;19;152866;-56
2022/12/04 09:44:13;;;;;;;;;;;;;;;21.19;44.72;101403.84;7253327;19;154356;-55
2022/12/04 09:46:49;;;;;;;;;;;;;;;21.14;44.62;101409.53;7251627;19;153173;-56
2022/12/04 09:49:20;;;;;;;;;;;;;;;21.10;44.72;101411.25;7252590;19;152850;-55
2022/12/04 09:51:48;;;;;;;;;;;;;;;21.07;44.62;101418.31;7259109;19;155395;-55
2022/12/04 09:54:17;;;;;;;;;;;;;;;21.07;45.47;101418.31;7255041;19;153904;-56
2022/12/04 09:56:50;;;;;;;;;;;;;;;20.96;41.06;101425.19;7251699;19;153612;-56
2022/12/04 09:59:21;;;;;;;;;;;;;;;20.84;36.62;101421.97;7246443;19;154372;-55
2022/12/04 10:01:50;;;;;;;;;;;;;;;20.72;36.63;101415.91;7251267;19;154273;-56
2022/12/04 10:04:17;;;;;;;;;;;;;;;20.63;38.21;101423.31;7252443;19;153353;-56
2022/12/04 10:06:46;;;;;;;;;;;;;;;20.68;39.69;101426.91;7253420;19;155199;-55
2022/12/04 10:09:20;;;;;;;;;;;;;;;20.72;39.52;101428.00;7254531;19;154485;-56
2022/12/04 10:11:52;;;;;;;;;;;;;;;20.78;39.94;101425.97;7250483;19;153954;-55
2022/12/04 10:14:28;;;;;;;;;;;;;;;20.79;40.01;101414.44;7259030;19;152499;-56
2022/12/04 10:16:55;;;;;;;;;;;;;;;20.85;40.16;101429.25;7253262;19;153875;-56
2022/12/04 10:19:22;;;;;;;;;;;;;;;20.88;40.19;101420.25;7255113;19;153391;-55
2022/12/04 10:21:50;;;;;;;;;;;;;;;20.90;40.17;101417.09;7253470;19;153670;-56
2022/12/04 10:24:20;;;;;;;;;;;;;;;20.94;40.06;101416.22;7243871;19;154116;-56
2022/12/04 10:26:48;;;;;;;;;;;;;;;20.94;40.19;101413.41;7246909;19;154303;-56
2022/12/04 10:29:24;;;;;;;;;;;;;;;20.95;40.25;101408.63;7251386;19;154106;-56
2022/12/04 10:31:54;;;;;;;;;;;;;;;20.94;40.73;101407.78;7252237;19;154620;-56
2022/12/04 10:34:24;;;;;;;;;;;;;;;20.95;40.60;101409.47;7256198;19;153367;-56
2022/12/04 10:36:52;;;;;;;;;;;;;;;20.97;40.87;101407.19;7249751;19;154552;-56
2022/12/04 10:39:32;;;;;;;;;;;;;;;20.96;40.86;101405.53;7246785;19;152677;-56
2022/12/04 10:42:03;;;;;;;;;;;;;;;21.00;41.23;101405.75;7249863;19;153853;-56
2022/12/04 10:44:30;;;;;;;;;;;;;;;21.02;41.18;101400.69;7250075;19;153981;-56
2022/12/04 10:46:58;;;;;;;;;;;;;;;21.05;41.12;101397.25;7248763;19;154295;-56
2022/12/04 10:49:27;;;;;;;;;;;;;;;21.07;41.12;101395.00;7250282;19;154131;-56
2022/12/04 10:51:54;;;;;;;;;;;;;;;21.07;41.23;101398.66;7246355;19;154417;-56
2022/12/04 10:54:21;;;;;;;;;;;;;;;21.10;41.00;101400.84;7249129;19;155792;-56
2022/12/04 10:56:49;;;;;;;;;;;;;;;21.11;40.96;101394.09;7253843;19;152877;-56
2022/12/04 10:59:16;;;;;;;;;;;;;;;21.13;41.21;101405.88;7243795;19;154827;-56
2022/12/04 11:01:44;;;;;;;;;;;;;;;21.16;40.88;101402.50;7248423;19;153722;-56
2022/12/04 11:04:20;;;;;;;;;;;;;;;21.17;40.99;101395.72;7246785;19;153919;-56
2022/12/04 11:06:48;;;;;;;;;;;;;;;21.20;41.21;101395.13;7249707;19;154212;-56
2022/12/04 11:09:21;;;;;;;;;;;;;;;21.21;40.95;101396.78;7249836;19;152862;-56
2022/12/04 11:11:48;;;;;;;;;;;;;;;21.24;41.32;101398.16;7246955;19;154017;-56
2022/12/04 11:14:16;;;;;;;;;;;;;;;21.27;40.84;101406.81;7243851;19;153958;-56
2022/12/04 11:16:47;;;;;;;;;;;;;;;21.30;41.12;101394.16;7245873;19;154393;-57
2022/12/04 11:19:21;;;;;;;;;;;;;;;21.32;41.10;101397.47;7254887;19;154178;-56
2022/12/04 11:21:49;;;;;;;;;;;;;;;21.35;40.86;101396.06;7248557;19;153202;-56
2022/12/04 11:24:20;;;;;;;;;;;;;;;21.36;40.53;101392.06;7247661;19;152814;-56
2022/12/04 11:26:47;;;;;;;;;;;;;;;21.39;40.34;101403.56;7246429;19;153308;-56
2022/12/04 11:29:16;;;;;;;;;;;;;;;21.41;40.53;101409.72;7250363;19;153234;-56
2022/12/04 11:31:51;;;;;;;;;;;;;;;21.44;39.99;101405.47;7250622;19;153018;-56
2022/12/04 11:34:20;;;;;;;;;;;;;;;21.47;39.74;101407.66;7249116;19;155988;-56
2022/12/04 11:36:52;;;;;;;;;;;;;;;21.46;40.09;101404.03;7249097;19;153349;-56
2022/12/04 11:39:23;;;;;;;;;;;;;;;21.48;39.78;101400.91;7248977;19;154964;-56
2022/12/04 11:42:00;;;;;;;;;;;;;;;21.47;40.05;101407.66;7259665;19;153612;-56
2022/12/04 11:44:28;;;;;;;;;;;;;;;21.46;40.00;101412.47;7252310;19;153463;-56
2022/12/04 11:46:58;;;;;;;;;;;;;;;21.47;40.21;101407.66;7255802;19;154165;-56
2022/12/04 11:49:26;;;;;;;;;;;;;;;21.47;40.25;101410.47;7256664;19;153977;-56
2022/12/04 11:52:00;;;;;;;;;;;;;;;21.48;40.26;101412.16;7255419;19;153513;-56
2022/12/04 11:54:37;;;;;;;;;;;;;;;21.49;40.32;101417.47;7259002;19;154294;-56
2022/12/04 11:57:12;;;;;;;;;;;;;;;21.52;40.32;101416.88;7251732;19;152900;-56
2022/12/04 11:59:47;;;;;;;;;;;;;;;21.53;40.09;101418.53;7243532;19;153608;-56
2022/12/04 12:02:25;;;;;;;;;;;;;;;21.56;40.21;101408.66;7257612;19;156700;-56
2022/12/04 12:05:01;;;;;;;;;;;;;;;21.55;40.09;101407.81;7264161;19;153838;-57
2022/12/04 12:07:36;;;;;;;;;;;;;;;21.58;39.77;101406.38;7254815;19;152621;-57
2022/12/04 12:10:04;;;;;;;;;;;;;;;21.60;40.12;101413.38;7256764;19;154876;-57
2022/12/04 12:12:40;;;;;;;;;;;;;;;21.62;39.85;101411.06;7254457;19;154916;-57
2022/12/04 12:15:15;;;;;;;;;;;;;;;21.62;39.73;101408.25;7253121;19;153715;-57
2022/12/04 12:17:45;;;;;;;;;;;;;;;21.63;39.43;101401.50;7259056;19;154378;-56
2022/12/04 12:20:15;;;;;;;;;;;;;;;21.67;39.42;101399.75;7256328;19;154036;-57
2022/12/04 12:22:52;;;;;;;;;;;;;;;21.69;39.73;101402.25;7254994;19;155146;-56
2022/12/04 12:25:19;;;;;;;;;;;;;;;21.71;39.64;101402.81;7258084;19;160323;-57
2022/12/04 12:27:47;;;;;;;;;;;;;;;21.70;39.62;101392.69;7249276;19;154482;-56
2022/12/04 12:30:14;;;;;;;;;;;;;;;21.69;39.51;101397.47;7254013;19;152772;-56
2022/12/04 12:32:41;;;;;;;;;;;;;;;21.70;39.78;101387.91;7252672;19;154244;-56
2022/12/04 12:35:21;;;;;;;;;;;;;;;21.72;39.78;101393.22;7254218;19;154913;-56
2022/12/04 12:37:51;;;;;;;;;;;;;;;21.72;39.47;101384.78;7252024;19;153884;-57
2022/12/04 12:40:24;;;;;;;;;;;;;;;21.73;40.06;101386.44;7252618;19;153768;-57
2022/12/04 12:42:55;;;;;;;;;;;;;;;21.75;39.95;101381.38;7250726;19;155066;-57
2022/12/04 12:45:25;;;;;;;;;;;;;;;21.77;39.59;101375.41;7251546;19;154266;-56
2022/12/04 12:47:54;;;;;;;;;;;;;;;21.78;39.81;101382.72;7257826;19;153786;-56